sensor_id;sensor_type;location;lat;lon;timestamp;temperature;humidity
71184;DHT22;58887;51.980;4.464;2023-03-21T00:01:45;10.53;87.20
71184;DHT22;58887;51.980;4.464;2023-03-21T00:04:10;10.48;87.29
71184;DHT22;58887;51.980;4.464;2023-03-21T00:06:36;10.42;87.52
71184;DHT22;58887;51.980;4.464;2023-03-21T00:09:02;10.46;87.43
71184;DHT22;58887;51.980;4.464;2023-03-21T00:11:28;10.42;87.57
71184;DHT22;58887;51.980;4.464;2023-03-21T00:13:54;10.33;88.19
71184;DHT22;58887;51.980;4.464;2023-03-21T00:16:27;10.33;88.34
71184;DHT22;58887;51.980;4.464;2023-03-21T00:18:55;10.41;88.42
71184;DHT22;58887;51.980;4.464;2023-03-21T00:21:23;10.41;88.26
71184;DHT22;58887;51.980;4.464;2023-03-21T00:23:54;10.42;88.53
71184;DHT22;58887;51.980;4.464;2023-03-21T00:26:20;10.36;88.56
71184;DHT22;58887;51.980;4.464;2023-03-21T00:28:47;10.42;88.66
71184;DHT22;58887;51.980;4.464;2023-03-21T00:31:13;10.39;88.47
71184;DHT22;58887;51.980;4.464;2023-03-21T00:33:39;10.36;88.77
71184;DHT22;58887;51.980;4.464;2023-03-21T00:36:06;10.35;88.90
71184;DHT22;58887;51.980;4.464;2023-03-21T00:38:32;10.33;88.79
71184;DHT22;58887;51.980;4.464;2023-03-21T00:40:58;10.38;88.76
71184;DHT22;58887;51.980;4.464;2023-03-21T00:43:24;10.35;88.79
71184;DHT22;58887;51.980;4.464;2023-03-21T00:45:55;10.32;88.87
71184;DHT22;58887;51.980;4.464;2023-03-21T00:48:20;10.23;89.24
71184;DHT22;58887;51.980;4.464;2023-03-21T00:50:46;10.19;89.30
71184;DHT22;58887;51.980;4.464;2023-03-21T00:53:14;10.31;89.20
71184;DHT22;58887;51.980;4.464;2023-03-21T00:55:40;10.39;88.89
71184;DHT22;58887;51.980;4.464;2023-03-21T00:58:06;10.46;88.80
71184;DHT22;58887;51.980;4.464;2023-03-21T01:00:32;10.42;88.63
71184;DHT22;58887;51.980;4.464;2023-03-21T01:03:02;10.42;88.64
71184;DHT22;58887;51.980;4.464;2023-03-21T01:05:33;10.39;88.71
71184;DHT22;58887;51.980;4.464;2023-03-21T01:08:19;10.31;88.95
71184;DHT22;58887;51.980;4.464;2023-03-21T01:10:47;10.36;88.65
71184;DHT22;58887;51.980;4.464;2023-03-21T01:13:15;10.35;88.66
71184;DHT22;58887;51.980;4.464;2023-03-21T01:15:50;10.48;88.09
71184;DHT22;58887;51.980;4.464;2023-03-21T01:18:18;10.43;87.89
71184;DHT22;58887;51.980;4.464;2023-03-21T01:20:44;10.42;87.91
71184;DHT22;58887;51.980;4.464;2023-03-21T01:23:11;10.42;87.61
71184;DHT22;58887;51.980;4.464;2023-03-21T01:25:37;10.41;87.63
71184;DHT22;58887;51.980;4.464;2023-03-21T01:28:04;10.36;87.70
71184;DHT22;58887;51.980;4.464;2023-03-21T01:30:29;10.45;87.43
71184;DHT22;58887;51.980;4.464;2023-03-21T01:32:55;10.46;87.20
71184;DHT22;58887;51.980;4.464;2023-03-21T01:35:20;10.49;86.93
71184;DHT22;58887;51.980;4.464;2023-03-21T01:37:46;10.48;86.58
71184;DHT22;58887;51.980;4.464;2023-03-21T01:40:19;10.52;86.47
71184;DHT22;58887;51.980;4.464;2023-03-21T01:42:46;10.57;86.40
71184;DHT22;58887;51.980;4.464;2023-03-21T01:48:15;10.59;86.04
71184;DHT22;58887;51.980;4.464;2023-03-21T01:50:42;10.57;85.76
71184;DHT22;58887;51.980;4.464;2023-03-21T01:53:08;10.56;86.21
71184;DHT22;58887;51.980;4.464;2023-03-21T01:55:34;10.45;86.71
71184;DHT22;58887;51.980;4.464;2023-03-21T01:58:03;10.46;86.62
71184;DHT22;58887;51.980;4.464;2023-03-21T02:00:31;10.42;86.73
71184;DHT22;58887;51.980;4.464;2023-03-21T02:03:00;10.42;87.17
71184;DHT22;58887;51.980;4.464;2023-03-21T02:08:07;10.41;87.31
71184;DHT22;58887;51.980;4.464;2023-03-21T02:10:32;10.38;87.33
71184;DHT22;58887;51.980;4.464;2023-03-21T02:13:04;10.29;87.89
71184;DHT22;58887;51.980;4.464;2023-03-21T02:15:37;10.33;87.82
71184;DHT22;58887;51.980;4.464;2023-03-21T02:18:18;10.35;87.88
71184;DHT22;58887;51.980;4.464;2023-03-21T02:41:05;10.50;87.09
71184;DHT22;58887;51.980;4.464;2023-03-21T02:43:53;10.52;86.76
71184;DHT22;58887;51.980;4.464;2023-03-21T02:47:28;10.48;86.92
71184;DHT22;58887;51.980;4.464;2023-03-21T02:49:57;10.43;86.75
71184;DHT22;58887;51.980;4.464;2023-03-21T02:52:31;10.42;86.87
71184;DHT22;58887;51.980;4.464;2023-03-21T02:54:59;10.42;86.82
71184;DHT22;58887;51.980;4.464;2023-03-21T02:57:29;10.45;86.44
71184;DHT22;58887;51.980;4.464;2023-03-21T02:59:56;10.46;86.50
71184;DHT22;58887;51.980;4.464;2023-03-21T03:02:26;10.50;86.22
71184;DHT22;58887;51.980;4.464;2023-03-21T03:04:55;10.50;86.25
71184;DHT22;58887;51.980;4.464;2023-03-21T03:10:21;10.49;85.88
71184;DHT22;58887;51.980;4.464;2023-03-21T03:18:49;10.52;86.10
71184;DHT22;58887;51.980;4.464;2023-03-21T03:21:39;10.46;85.76
71184;DHT22;58887;51.980;4.464;2023-03-21T03:24:32;10.45;85.71
71184;DHT22;58887;51.980;4.464;2023-03-21T03:27:15;10.42;85.88
71184;DHT22;58887;51.980;4.464;2023-03-21T03:29:45;10.43;85.82
71184;DHT22;58887;51.980;4.464;2023-03-21T03:32:44;10.49;85.40
71184;DHT22;58887;51.980;4.464;2023-03-21T03:35:16;10.41;85.46
71184;DHT22;58887;51.980;4.464;2023-03-21T03:37:48;10.35;84.97
71184;DHT22;58887;51.980;4.464;2023-03-21T03:40:41;10.29;85.05
71184;DHT22;58887;51.980;4.464;2023-03-21T03:43:15;10.46;84.92
71184;DHT22;58887;51.980;4.464;2023-03-21T03:45:48;10.53;84.42
71184;DHT22;58887;51.980;4.464;2023-03-21T03:48:32;10.38;84.44
71184;DHT22;58887;51.980;4.464;2023-03-21T03:51:08;10.41;84.36
71184;DHT22;58887;51.980;4.464;2023-03-21T03:53:45;10.46;84.15
71184;DHT22;58887;51.980;4.464;2023-03-21T03:56:13;10.49;83.94
71184;DHT22;58887;51.980;4.464;2023-03-21T03:58:39;10.46;83.84
71184;DHT22;58887;51.980;4.464;2023-03-21T04:01:05;10.46;84.16
71184;DHT22;58887;51.980;4.464;2023-03-21T04:03:37;10.42;84.30
71184;DHT22;58887;51.980;4.464;2023-03-21T04:06:03;10.33;84.72
71184;DHT22;58887;51.980;4.464;2023-03-21T04:08:29;10.26;85.18
71184;DHT22;58887;51.980;4.464;2023-03-21T04:10:55;10.33;84.98
71184;DHT22;58887;51.980;4.464;2023-03-21T04:13:21;10.43;84.77
71184;DHT22;58887;51.980;4.464;2023-03-21T04:15:46;10.33;85.00
71184;DHT22;58887;51.980;4.464;2023-03-21T04:18:12;10.38;84.94
71184;DHT22;58887;51.980;4.464;2023-03-21T04:20:38;10.46;84.91
71184;DHT22;58887;51.980;4.464;2023-03-21T04:23:04;10.42;84.85
71184;DHT22;58887;51.980;4.464;2023-03-21T04:25:33;10.42;85.00
71184;DHT22;58887;51.980;4.464;2023-03-21T04:27:59;10.53;84.62
71184;DHT22;58887;51.980;4.464;2023-03-21T04:30:24;10.53;84.13
71184;DHT22;58887;51.980;4.464;2023-03-21T04:32:51;10.46;84.26
71184;DHT22;58887;51.980;4.464;2023-03-21T04:35:19;10.41;84.51
71184;DHT22;58887;51.980;4.464;2023-03-21T04:37:45;10.46;84.16
71184;DHT22;58887;51.980;4.464;2023-03-21T04:40:11;10.35;84.48
71184;DHT22;58887;51.980;4.464;2023-03-21T04:42:40;10.41;84.52
71184;DHT22;58887;51.980;4.464;2023-03-21T04:45:07;10.52;84.46
71184;DHT22;58887;51.980;4.464;2023-03-21T04:47:32;10.53;84.18
71184;DHT22;58887;51.980;4.464;2023-03-21T04:49:58;10.53;83.91
71184;DHT22;58887;51.980;4.464;2023-03-21T04:52:23;10.57;83.76
71184;DHT22;58887;51.980;4.464;2023-03-21T04:54:49;10.63;83.63
71184;DHT22;58887;51.980;4.464;2023-03-21T04:57:14;10.53;83.57
71184;DHT22;58887;51.980;4.464;2023-03-21T04:59:40;10.33;84.54
71184;DHT22;58887;51.980;4.464;2023-03-21T05:02:05;10.33;84.67
71184;DHT22;58887;51.980;4.464;2023-03-21T05:04:31;10.52;84.14
71184;DHT22;58887;51.980;4.464;2023-03-21T05:06:57;10.55;83.74
71184;DHT22;58887;51.980;4.464;2023-03-21T05:09:23;10.56;83.70
71184;DHT22;58887;51.980;4.464;2023-03-21T05:11:49;10.46;83.66
71184;DHT22;58887;51.980;4.464;2023-03-21T05:14:19;10.50;83.79
71184;DHT22;58887;51.980;4.464;2023-03-21T05:16:45;10.55;83.58
71184;DHT22;58887;51.980;4.464;2023-03-21T05:19:27;10.43;83.81
71184;DHT22;58887;51.980;4.464;2023-03-21T05:22:07;10.50;83.78
71184;DHT22;58887;51.980;4.464;2023-03-21T05:24:33;10.42;83.83
71184;DHT22;58887;51.980;4.464;2023-03-21T05:27:00;10.56;83.65
71184;DHT22;58887;51.980;4.464;2023-03-21T05:29:28;10.56;83.37
71184;DHT22;58887;51.980;4.464;2023-03-21T05:31:55;10.42;83.91
71184;DHT22;58887;51.980;4.464;2023-03-21T05:34:20;10.46;83.78
71184;DHT22;58887;51.980;4.464;2023-03-21T05:36:46;10.53;83.52
71184;DHT22;58887;51.980;4.464;2023-03-21T05:39:11;10.46;83.50
71184;DHT22;58887;51.980;4.464;2023-03-21T05:41:37;10.42;83.84
71184;DHT22;58887;51.980;4.464;2023-03-21T05:44:03;10.38;84.23
71184;DHT22;58887;51.980;4.464;2023-03-21T05:46:28;10.39;83.75
71184;DHT22;58887;51.980;4.464;2023-03-21T05:48:54;10.31;84.11
71184;DHT22;58887;51.980;4.464;2023-03-21T05:51:20;10.29;84.07
71184;DHT22;58887;51.980;4.464;2023-03-21T05:53:46;10.42;84.21
71184;DHT22;58887;51.980;4.464;2023-03-21T05:56:11;10.32;83.99
71184;DHT22;58887;51.980;4.464;2023-03-21T05:58:37;10.28;84.65
71184;DHT22;58887;51.980;4.464;2023-03-21T06:01:02;10.41;84.30
71184;DHT22;58887;51.980;4.464;2023-03-21T06:03:28;10.48;84.16
71184;DHT22;58887;51.980;4.464;2023-03-21T06:05:53;10.48;83.71
71184;DHT22;58887;51.980;4.464;2023-03-21T06:08:19;10.53;83.67
71184;DHT22;58887;51.980;4.464;2023-03-21T06:10:45;10.67;83.35
71184;DHT22;58887;51.980;4.464;2023-03-21T06:13:10;10.67;83.12
71184;DHT22;58887;51.980;4.464;2023-03-21T06:15:36;10.59;83.25
71184;DHT22;58887;51.980;4.464;2023-03-21T06:18:01;10.56;83.39
71184;DHT22;58887;51.980;4.464;2023-03-21T06:20:27;10.55;83.53
71184;DHT22;58887;51.980;4.464;2023-03-21T06:22:52;10.56;83.45
71184;DHT22;58887;51.980;4.464;2023-03-21T06:25:18;10.63;83.30
71184;DHT22;58887;51.980;4.464;2023-03-21T06:27:43;10.70;83.36
71184;DHT22;58887;51.980;4.464;2023-03-21T06:30:09;10.67;83.39
71184;DHT22;58887;51.980;4.464;2023-03-21T06:32:35;10.71;83.37
71184;DHT22;58887;51.980;4.464;2023-03-21T06:35:01;10.63;83.80
71184;DHT22;58887;51.980;4.464;2023-03-21T06:37:26;10.59;83.95
71184;DHT22;58887;51.980;4.464;2023-03-21T06:39:52;10.62;84.08
71184;DHT22;58887;51.980;4.464;2023-03-21T06:42:18;10.67;84.10
71184;DHT22;58887;51.980;4.464;2023-03-21T06:44:43;10.45;84.40
71184;DHT22;58887;51.980;4.464;2023-03-21T06:47:09;10.53;84.60
71184;DHT22;58887;51.980;4.464;2023-03-21T06:49:35;10.42;84.74
71184;DHT22;58887;51.980;4.464;2023-03-21T06:52:00;10.46;84.90
71184;DHT22;58887;51.980;4.464;2023-03-21T06:54:26;10.56;84.67
71184;DHT22;58887;51.980;4.464;2023-03-21T06:56:51;10.45;85.03
71184;DHT22;58887;51.980;4.464;2023-03-21T06:59:18;10.48;85.02
71184;DHT22;58887;51.980;4.464;2023-03-21T07:01:50;10.49;84.99
71184;DHT22;58887;51.980;4.464;2023-03-21T07:04:16;10.48;84.97
71184;DHT22;58887;51.980;4.464;2023-03-21T07:06:41;10.53;84.88
71184;DHT22;58887;51.980;4.464;2023-03-21T07:09:07;10.50;84.91
71184;DHT22;58887;51.980;4.464;2023-03-21T07:11:35;10.39;85.14
71184;DHT22;58887;51.980;4.464;2023-03-21T07:14:02;10.53;85.28
71184;DHT22;58887;51.980;4.464;2023-03-21T07:16:28;10.59;84.78
71184;DHT22;58887;51.980;4.464;2023-03-21T07:18:54;10.41;85.50
71184;DHT22;58887;51.980;4.464;2023-03-21T07:21:20;10.41;85.37
71184;DHT22;58887;51.980;4.464;2023-03-21T07:23:45;10.32;85.64
71184;DHT22;58887;51.980;4.464;2023-03-21T07:26:12;10.49;85.32
71184;DHT22;58887;51.980;4.464;2023-03-21T07:28:37;10.29;85.54
71184;DHT22;58887;51.980;4.464;2023-03-21T07:31:05;10.33;85.59
71184;DHT22;58887;51.980;4.464;2023-03-21T07:33:32;10.21;86.11
71184;DHT22;58887;51.980;4.464;2023-03-21T07:35:59;10.31;86.05
71184;DHT22;58887;51.980;4.464;2023-03-21T07:38:26;10.52;85.38
71184;DHT22;58887;51.980;4.464;2023-03-21T07:40:52;10.46;85.38
71184;DHT22;58887;51.980;4.464;2023-03-21T07:43:18;10.33;85.91
71184;DHT22;58887;51.980;4.464;2023-03-21T07:45:45;10.21;85.78
71184;DHT22;58887;51.980;4.464;2023-03-21T07:48:11;10.45;85.56
71184;DHT22;58887;51.980;4.464;2023-03-21T07:50:41;10.55;85.35
71184;DHT22;58887;51.980;4.464;2023-03-21T07:53:07;10.59;84.95
71184;DHT22;58887;51.980;4.464;2023-03-21T07:55:32;10.50;85.24
71184;DHT22;58887;51.980;4.464;2023-03-21T07:58:03;10.45;85.06
71184;DHT22;58887;51.980;4.464;2023-03-21T08:00:29;10.63;84.93
71184;DHT22;58887;51.980;4.464;2023-03-21T08:02:56;10.81;84.59
71184;DHT22;58887;51.980;4.464;2023-03-21T08:05:32;10.84;84.55
71184;DHT22;58887;51.980;4.464;2023-03-21T08:07:57;11.03;83.93
71184;DHT22;58887;51.980;4.464;2023-03-21T08:10:23;11.04;83.45
71184;DHT22;58887;51.980;4.464;2023-03-21T08:12:49;11.18;82.51
71184;DHT22;58887;51.980;4.464;2023-03-21T08:15:15;11.25;82.46
71184;DHT22;58887;51.980;4.464;2023-03-21T08:17:41;11.17;82.95
71184;DHT22;58887;51.980;4.464;2023-03-21T08:20:13;11.15;82.57
71184;DHT22;58887;51.980;4.464;2023-03-21T08:22:39;11.25;82.34
71184;DHT22;58887;51.980;4.464;2023-03-21T08:25:07;11.31;81.89
71184;DHT22;58887;51.980;4.464;2023-03-21T08:27:34;11.46;81.41
71184;DHT22;58887;51.980;4.464;2023-03-21T08:30:00;11.61;80.92
71184;DHT22;58887;51.980;4.464;2023-03-21T08:32:27;11.43;81.01
71184;DHT22;58887;51.980;4.464;2023-03-21T08:34:59;11.61;80.88
71184;DHT22;58887;51.980;4.464;2023-03-21T08:37:26;11.61;80.13
71184;DHT22;58887;51.980;4.464;2023-03-21T08:39:51;11.45;80.16
71184;DHT22;58887;51.980;4.464;2023-03-21T08:42:17;11.68;79.71
71184;DHT22;58887;51.980;4.464;2023-03-21T08:44:43;11.72;79.96
71184;DHT22;58887;51.980;4.464;2023-03-21T08:47:08;11.91;79.55
71184;DHT22;58887;51.980;4.464;2023-03-21T08:49:35;12.00;79.24
71184;DHT22;58887;51.980;4.464;2023-03-21T08:52:00;11.90;79.42
71184;DHT22;58887;51.980;4.464;2023-03-21T08:54:26;12.12;79.38
71184;DHT22;58887;51.980;4.464;2023-03-21T08:56:52;12.16;79.21
71184;DHT22;58887;51.980;4.464;2023-03-21T08:59:17;12.13;78.27
71184;DHT22;58887;51.980;4.464;2023-03-21T09:01:43;12.21;78.55
71184;DHT22;58887;51.980;4.464;2023-03-21T09:04:09;12.47;78.32
71184;DHT22;58887;51.980;4.464;2023-03-21T09:06:41;12.52;77.83
71184;DHT22;58887;51.980;4.464;2023-03-21T09:09:11;12.42;77.43
71184;DHT22;58887;51.980;4.464;2023-03-21T09:11:37;12.52;77.90
71184;DHT22;58887;51.980;4.464;2023-03-21T09:14:03;12.45;77.76
71184;DHT22;58887;51.980;4.464;2023-03-21T09:16:28;12.40;78.25
71184;DHT22;58887;51.980;4.464;2023-03-21T09:18:54;12.47;78.15
71184;DHT22;58887;51.980;4.464;2023-03-21T09:21:20;12.52;78.70
71184;DHT22;58887;51.980;4.464;2023-03-21T09:23:48;12.52;77.89
71184;DHT22;58887;51.980;4.464;2023-03-21T09:26:18;12.72;77.42
71184;DHT22;58887;51.980;4.464;2023-03-21T09:28:44;12.75;77.81
71184;DHT22;58887;51.980;4.464;2023-03-21T09:31:14;12.96;77.67
71184;DHT22;58887;51.980;4.464;2023-03-21T09:33:41;13.02;76.87
71184;DHT22;58887;51.980;4.464;2023-03-21T09:36:09;12.68;78.25
71184;DHT22;58887;51.980;4.464;2023-03-21T09:38:42;12.64;77.65
71184;DHT22;58887;51.980;4.464;2023-03-21T09:44:08;12.71;77.53
71184;DHT22;58887;51.980;4.464;2023-03-21T09:46:47;12.67;77.57
71184;DHT22;58887;51.980;4.464;2023-03-21T09:49:21;12.74;77.42
71184;DHT22;58887;51.980;4.464;2023-03-21T09:51:53;12.61;78.05
71184;DHT22;58887;51.980;4.464;2023-03-21T09:56:53;12.99;76.67
71184;DHT22;58887;51.980;4.464;2023-03-21T09:59:37;13.05;76.92
71184;DHT22;58887;51.980;4.464;2023-03-21T10:05:01;13.36;75.61
71184;DHT22;58887;51.980;4.464;2023-03-21T10:07:39;13.30;75.25
71184;DHT22;58887;51.980;4.464;2023-03-21T10:10:15;13.27;75.54
71184;DHT22;58887;51.980;4.464;2023-03-21T10:12:44;13.17;75.35
71184;DHT22;58887;51.980;4.464;2023-03-21T10:15:17;13.24;75.33
71184;DHT22;58887;51.980;4.464;2023-03-21T10:17:56;13.23;75.52
71184;DHT22;58887;51.980;4.464;2023-03-21T10:20:25;13.06;74.62
71184;DHT22;58887;51.980;4.464;2023-03-21T10:22:54;13.16;75.01
71184;DHT22;58887;51.980;4.464;2023-03-21T10:25:35;13.17;74.73
71184;DHT22;58887;51.980;4.464;2023-03-21T10:28:05;12.88;74.97
71184;DHT22;58887;51.980;4.464;2023-03-21T10:30:39;12.92;74.91
71184;DHT22;58887;51.980;4.464;2023-03-21T10:33:09;12.91;75.08
71184;DHT22;58887;51.980;4.464;2023-03-21T10:35:37;12.82;75.06
71184;DHT22;58887;51.980;4.464;2023-03-21T10:38:05;12.69;76.03
71184;DHT22;58887;51.980;4.464;2023-03-21T10:40:31;12.64;76.28
71184;DHT22;58887;51.980;4.464;2023-03-21T10:45:53;12.47;76.13
71184;DHT22;58887;51.980;4.464;2023-03-21T10:48:19;12.41;76.67
71184;DHT22;58887;51.980;4.464;2023-03-21T10:50:48;12.40;76.58
71184;DHT22;58887;51.980;4.464;2023-03-21T10:53:37;12.58;76.79
71184;DHT22;58887;51.980;4.464;2023-03-21T10:56:08;12.68;76.41
71184;DHT22;58887;51.980;4.464;2023-03-21T10:58:40;12.95;75.84
71184;DHT22;58887;51.980;4.464;2023-03-21T11:01:11;13.05;75.54
71184;DHT22;58887;51.980;4.464;2023-03-21T11:03:42;13.19;75.26
71184;DHT22;58887;51.980;4.464;2023-03-21T11:06:30;13.36;74.86
71184;DHT22;58887;51.980;4.464;2023-03-21T11:09:08;13.61;74.16
71184;DHT22;58887;51.980;4.464;2023-03-21T11:14:03;13.54;73.48
71184;DHT22;58887;51.980;4.464;2023-03-21T11:16:42;13.43;73.76
71184;DHT22;58887;51.980;4.464;2023-03-21T11:19:27;13.33;73.58
71184;DHT22;58887;51.980;4.464;2023-03-21T11:21:56;13.33;73.03
71184;DHT22;58887;51.980;4.464;2023-03-21T11:24:22;13.35;73.12
71184;DHT22;58887;51.980;4.464;2023-03-21T11:26:48;13.19;72.15
71184;DHT22;58887;51.980;4.464;2023-03-21T11:32:21;13.16;72.75
71184;DHT22;58887;51.980;4.464;2023-03-21T11:37:26;12.68;72.98
71184;DHT22;58887;51.980;4.464;2023-03-21T11:40:50;12.74;72.97
71184;DHT22;58887;51.980;4.464;2023-03-21T11:45:20;12.68;72.43
71184;DHT22;58887;51.980;4.464;2023-03-21T11:47:47;12.74;72.37
71184;DHT22;58887;51.980;4.464;2023-03-21T11:50:45;13.03;72.19
71184;DHT22;58887;51.980;4.464;2023-03-21T11:53:23;13.08;72.72
71184;DHT22;58887;51.980;4.464;2023-03-21T11:56:15;13.54;71.11
71184;DHT22;58887;51.980;4.464;2023-03-21T12:04:38;15.39;65.64
71184;DHT22;58887;51.980;4.464;2023-03-21T12:07:21;14.90;66.27
71184;DHT22;58887;51.980;4.464;2023-03-21T12:12:51;13.43;69.68
71184;DHT22;58887;51.980;4.464;2023-03-21T12:15:38;13.29;69.93
71184;DHT22;58887;51.980;4.464;2023-03-21T12:32:11;13.30;71.51
71184;DHT22;58887;51.980;4.464;2023-03-21T12:35:05;13.35;71.51
71184;DHT22;58887;51.980;4.464;2023-03-21T12:37:51;13.33;71.26
71184;DHT22;58887;51.980;4.464;2023-03-21T12:43:21;13.43;70.58
71184;DHT22;58887;51.980;4.464;2023-03-21T12:46:21;13.48;70.88
71184;DHT22;58887;51.980;4.464;2023-03-21T12:49:08;13.53;71.15
71184;DHT22;58887;51.980;4.464;2023-03-21T12:51:42;13.58;70.55
71184;DHT22;58887;51.980;4.464;2023-03-21T12:57:09;13.91;70.10
71184;DHT22;58887;51.980;4.464;2023-03-21T12:59:45;13.77;70.31
71184;DHT22;58887;51.980;4.464;2023-03-21T13:02:28;13.79;70.49
71184;DHT22;58887;51.980;4.464;2023-03-21T13:05:27;13.67;69.87
71184;DHT22;58887;51.980;4.464;2023-03-21T13:08:04;14.12;69.81
71184;DHT22;58887;51.980;4.464;2023-03-21T13:10:34;14.26;68.37
71184;DHT22;58887;51.980;4.464;2023-03-21T13:13:05;14.11;69.26
71184;DHT22;58887;51.980;4.464;2023-03-21T13:20:52;13.70;70.32
71184;DHT22;58887;51.980;4.464;2023-03-21T13:23:27;13.75;70.59
71184;DHT22;58887;51.980;4.464;2023-03-21T13:25:57;13.61;70.90
71184;DHT22;58887;51.980;4.464;2023-03-21T13:28:29;13.54;71.32
71184;DHT22;58887;51.980;4.464;2023-03-21T13:31:14;13.47;70.88
71184;DHT22;58887;51.980;4.464;2023-03-21T13:33:45;13.39;71.89
71184;DHT22;58887;51.980;4.464;2023-03-21T13:36:13;13.27;72.19
71184;DHT22;58887;51.980;4.464;2023-03-21T13:38:40;13.42;72.21
71184;DHT22;58887;51.980;4.464;2023-03-21T13:41:11;13.36;72.12
71184;DHT22;58887;51.980;4.464;2023-03-21T13:44:04;13.47;72.54
71184;DHT22;58887;51.980;4.464;2023-03-21T13:46:54;13.58;72.21
71184;DHT22;58887;51.980;4.464;2023-03-21T13:51:57;13.42;72.78
71184;DHT22;58887;51.980;4.464;2023-03-21T13:54:42;13.47;72.70
71184;DHT22;58887;51.980;4.464;2023-03-21T14:00:29;13.32;73.46
71184;DHT22;58887;51.980;4.464;2023-03-21T14:03:09;13.33;74.04
71184;DHT22;58887;51.980;4.464;2023-03-21T14:05:38;13.39;74.22
71184;DHT22;58887;51.980;4.464;2023-03-21T14:08:09;13.10;75.05
71184;DHT22;58887;51.980;4.464;2023-03-21T14:10:46;13.29;74.66
71184;DHT22;58887;51.980;4.464;2023-03-21T14:13:19;13.23;74.77
71184;DHT22;58887;51.980;4.464;2023-03-21T14:15:50;13.15;75.08
71184;DHT22;58887;51.980;4.464;2023-03-21T14:18:20;12.95;75.48
71184;DHT22;58887;51.980;4.464;2023-03-21T14:20:52;12.77;76.01
71184;DHT22;58887;51.980;4.464;2023-03-21T14:23:19;12.78;76.28
71184;DHT22;58887;51.980;4.464;2023-03-21T14:25:46;12.96;75.77
71184;DHT22;58887;51.980;4.464;2023-03-21T14:28:22;13.10;75.93
71184;DHT22;58887;51.980;4.464;2023-03-21T14:30:53;13.13;76.13
71184;DHT22;58887;51.980;4.464;2023-03-21T14:33:40;13.02;75.76
71184;DHT22;58887;51.980;4.464;2023-03-21T14:36:15;13.02;76.02
71184;DHT22;58887;51.980;4.464;2023-03-21T14:38:41;13.09;75.84
71184;DHT22;58887;51.980;4.464;2023-03-21T14:41:27;12.89;76.45
71184;DHT22;58887;51.980;4.464;2023-03-21T14:44:13;12.89;76.40
71184;DHT22;58887;51.980;4.464;2023-03-21T14:46:41;12.93;76.65
71184;DHT22;58887;51.980;4.464;2023-03-21T14:49:19;12.84;77.02
71184;DHT22;58887;51.980;4.464;2023-03-21T14:51:46;12.85;77.24
71184;DHT22;58887;51.980;4.464;2023-03-21T14:54:15;12.88;76.90
71184;DHT22;58887;51.980;4.464;2023-03-21T14:56:49;12.81;77.07
71184;DHT22;58887;51.980;4.464;2023-03-21T14:59:19;12.74;77.40
71184;DHT22;58887;51.980;4.464;2023-03-21T15:01:48;12.61;78.00
71184;DHT22;58887;51.980;4.464;2023-03-21T15:04:15;12.67;78.18
71184;DHT22;58887;51.980;4.464;2023-03-21T15:09:15;12.55;79.31
71184;DHT22;58887;51.980;4.464;2023-03-21T15:11:41;12.64;79.27
71184;DHT22;58887;51.980;4.464;2023-03-21T15:14:10;12.41;80.37
71184;DHT22;58887;51.980;4.464;2023-03-21T15:16:37;12.42;80.13
71184;DHT22;58887;51.980;4.464;2023-03-21T15:19:04;12.48;80.73
71184;DHT22;58887;51.980;4.464;2023-03-21T15:21:38;12.55;79.68
71184;DHT22;58887;51.980;4.464;2023-03-21T15:24:10;12.72;79.18
71184;DHT22;58887;51.980;4.464;2023-03-21T15:26:43;13.20;78.42
71184;DHT22;58887;51.980;4.464;2023-03-21T15:29:09;13.36;77.13
71184;DHT22;58887;51.980;4.464;2023-03-21T15:31:38;13.33;77.12
71184;DHT22;58887;51.980;4.464;2023-03-21T15:34:04;13.43;76.70
71184;DHT22;58887;51.980;4.464;2023-03-21T15:36:35;13.53;75.07
71184;DHT22;58887;51.980;4.464;2023-03-21T15:39:13;13.56;75.25
71184;DHT22;58887;51.980;4.464;2023-03-21T15:41:40;13.54;75.46
71184;DHT22;58887;51.980;4.464;2023-03-21T15:46:44;13.58;74.92
71184;DHT22;58887;51.980;4.464;2023-03-21T15:51:45;13.68;74.84
71184;DHT22;58887;51.980;4.464;2023-03-21T15:54:23;13.48;74.74
71184;DHT22;58887;51.980;4.464;2023-03-21T15:56:54;13.37;75.01
71184;DHT22;58887;51.980;4.464;2023-03-21T15:59:24;13.35;75.24
71184;DHT22;58887;51.980;4.464;2023-03-21T16:01:51;13.33;75.70
71184;DHT22;58887;51.980;4.464;2023-03-21T16:04:17;13.43;75.52
71184;DHT22;58887;51.980;4.464;2023-03-21T16:06:58;13.60;75.48
71184;DHT22;58887;51.980;4.464;2023-03-21T16:09:24;13.58;75.26
71184;DHT22;58887;51.980;4.464;2023-03-21T16:14:18;13.39;75.28
71184;DHT22;58887;51.980;4.464;2023-03-21T16:16:45;13.92;74.83
71184;DHT22;58887;51.980;4.464;2023-03-21T16:19:11;14.63;72.27
71184;DHT22;58887;51.980;4.464;2023-03-21T16:21:37;14.57;72.45
71184;DHT22;58887;51.980;4.464;2023-03-21T16:24:03;14.18;73.11
71184;DHT22;58887;51.980;4.464;2023-03-21T16:26:51;13.66;74.83
71184;DHT22;58887;51.980;4.464;2023-03-21T16:29:18;13.53;75.22
71184;DHT22;58887;51.980;4.464;2023-03-21T16:31:46;13.39;75.71
71184;DHT22;58887;51.980;4.464;2023-03-21T16:34:13;13.37;75.67
71184;DHT22;58887;51.980;4.464;2023-03-21T16:36:40;13.36;75.77
71184;DHT22;58887;51.980;4.464;2023-03-21T16:39:21;13.23;76.13
71184;DHT22;58887;51.980;4.464;2023-03-21T16:41:47;13.10;76.55
71184;DHT22;58887;51.980;4.464;2023-03-21T16:44:13;13.13;76.68
71184;DHT22;58887;51.980;4.464;2023-03-21T16:46:39;13.24;76.64
71184;DHT22;58887;51.980;4.464;2023-03-21T16:49:16;13.35;75.95
71184;DHT22;58887;51.980;4.464;2023-03-21T16:51:42;13.30;75.77
71184;DHT22;58887;51.980;4.464;2023-03-21T16:54:07;13.15;74.78
71184;DHT22;58887;51.980;4.464;2023-03-21T16:56:37;12.93;74.81
71184;DHT22;58887;51.980;4.464;2023-03-21T16:59:04;12.65;75.34
71184;DHT22;58887;51.980;4.464;2023-03-21T17:01:31;12.75;75.17
71184;DHT22;58887;51.980;4.464;2023-03-21T17:03:57;12.79;74.84
71184;DHT22;58887;51.980;4.464;2023-03-21T17:06:25;12.85;74.43
71184;DHT22;58887;51.980;4.464;2023-03-21T17:08:53;12.77;74.71
71184;DHT22;58887;51.980;4.464;2023-03-21T17:11:22;12.93;74.29
71184;DHT22;58887;51.980;4.464;2023-03-21T17:13:49;12.99;73.79
71184;DHT22;58887;51.980;4.464;2023-03-21T17:16:18;12.89;73.69
71184;DHT22;58887;51.980;4.464;2023-03-21T17:18:46;12.77;73.21
71184;DHT22;58887;51.980;4.464;2023-03-21T17:21:21;12.84;73.34
71184;DHT22;58887;51.980;4.464;2023-03-21T17:23:47;12.74;73.64
71184;DHT22;58887;51.980;4.464;2023-03-21T17:26:21;12.77;73.80
71184;DHT22;58887;51.980;4.464;2023-03-21T17:28:47;12.84;73.73
71184;DHT22;58887;51.980;4.464;2023-03-21T17:31:18;12.77;73.16
71184;DHT22;58887;51.980;4.464;2023-03-21T17:33:44;12.48;73.62
71184;DHT22;58887;51.980;4.464;2023-03-21T17:36:15;12.38;73.79